Huvudsida
METAR-TAF:

METAR-TAF

Flygplatser :

Brønnøysunds flygplats. Brønnøy

Brønnøysund, Norge

latitud: 65-28N, longitud: 012-13E, höjd: 0 m

Aktuellt väderrapport

Denna rapport gjordes för 15 minuter sedan, klockan 05:50 UTC
Vind 11 kt från syd
Temperatur 12°C
Fuktighet 62%
Tryck 1016 hPa
Sikt 10 km eller mer
Få moln på en höjd av 4000 ft
Brutna moln på en höjd av 6000 ft
lätt regn, duggregn

METAR: ENBN 160550Z 19011KT 9999 -RADZ FEW040 BKN060 12/05 Q1016

Tid: 07:05 (06:05 UTC)

Väderprognos

Denna rapport gjordes för 16 timmar och 5 minuter sedan, klockan 14:00 UTC
Prognos gäller från 15 kl. 15 UTC till 15 kl. 20 UTC
Vind 15 kt från syd/sydväst
Sikt 10 km eller mer
Spridda moln på en höjd av 800 ft
Brutna moln på en höjd av 1600 ft
lätt regn
Temporärt
från 15 kl. 15 UTC till 15 kl. 20 UTC
Sikt: 2500 m
Brutna moln på en höjd av 400 ft
regn, duggregn

TAF: ENBN 151400Z 1515/1520 20015KT 9999 -RA SCT008 BKN016 TEMPO 1515/1520 2500 RADZ BKN004

Aktuella väderrapporter och prognoser från 4000 flygplatser (METAR- och TAF-rapporter).

De tillgängliga stationerna syns som gula och röda prickar på kartan.

För musen över prickarna för att se namnen på stationerna.

Klicka sedan för att få väderrapporter och prognoser.

För att ändra kartan: Klicka på de gröna knapparna med ett svart kors på för att zooma in; den gröna knappen med ett streck på för att zooma ut; eller på de gröna pilarna för angränsande kartor.


METAR-TAF: